Time;durP1;ratioP1;P1;durP2;ratioP2;P2;SDS_P1;SDS_P2;PMS_P1;PMS_P2;Temp;Humidity;BMP_temperature;BMP_pressure;BME280_temperature;BME280_humidity;BME280_pressure;Samples;Min_cycle;Max_cycle;Signal;HPM_P1;HPM_P2
2024/01/15 00:02:13;;;;;;;47.63;20.97;;;;;;;-144.30;90.04;86786.28;5048554;28;20322;-57
2024/01/15 00:04:41;;;;;;;44.20;20.43;;;;;;;-144.30;89.59;86798.22;5048855;28;20197;-59
2024/01/15 00:07:10;;;;;;;41.27;21.33;;;;;;;-144.30;89.70;86780.31;5048554;28;20732;-58
2024/01/15 00:09:37;;;;;;;48.57;21.20;;;;;;;-144.30;89.27;86796.22;5049020;28;20576;-59
2024/01/15 00:12:05;;;;;;;43.67;21.00;;;;;;;-144.30;88.94;86760.44;5048573;28;20199;-58
2024/01/15 00:14:31;;;;;;;46.50;20.90;;;;;;;-144.30;89.30;86818.09;5048847;28;20198;-57
2024/01/15 00:16:58;;;;;;;48.27;21.77;;;;;;;-144.30;88.47;86800.19;5048643;28;20202;-57
2024/01/15 00:19:26;;;;;;;48.40;23.03;;;;;;;-144.30;89.01;86832.03;5048739;28;20202;-57
2024/01/15 00:21:53;;;;;;;43.73;21.40;;;;;;;-144.30;88.34;86814.13;5048502;28;20198;-57
2024/01/15 00:24:22;;;;;;;52.63;22.20;;;;;;;-144.30;87.93;86786.28;5048668;28;20278;-56
2024/01/15 00:26:48;;;;;;;48.03;21.63;;;;;;;-144.30;88.39;86804.19;5048788;28;20317;-58
2024/01/15 00:29:15;;;;;;;48.97;22.27;;;;;;;-144.30;88.26;86812.13;5048377;28;20375;-57
2024/01/15 00:31:42;;;;;;;43.87;21.53;;;;;;;-144.30;87.72;86804.19;5048597;28;20283;-57
2024/01/15 00:34:09;;;;;;;47.33;21.67;;;;;;;-144.30;88.01;86804.19;5048271;28;20200;-57
2024/01/15 00:36:37;;;;;;;44.10;21.50;;;;;;;-144.30;88.10;86788.28;5048446;28;20686;-58
2024/01/15 00:39:04;;;;;;;43.73;20.67;;;;;;;-144.30;87.63;86796.22;5048239;28;20210;-57
2024/01/15 00:41:33;;;;;;;49.60;22.43;;;;;;;-144.30;88.02;86786.28;5048966;28;20574;-57
2024/01/15 00:44:00;;;;;;;50.23;21.30;;;;;;;-144.30;88.45;86834.00;5048485;28;20688;-60
2024/01/15 00:46:26;;;;;;;46.23;21.40;;;;;;;-144.30;89.42;86786.28;5048552;28;20239;-57
2024/01/15 00:48:53;;;;;;;46.77;22.13;;;;;;;-144.30;89.73;86790.25;5048536;28;20207;-57
2024/01/15 00:51:20;;;;;;;48.57;22.63;;;;;;;-144.30;89.30;86784.28;5048708;28;20197;-57
2024/01/15 00:53:48;;;;;;;50.93;22.27;;;;;;;-144.30;89.22;86798.22;5048562;28;20198;-58
2024/01/15 00:56:14;;;;;;;55.27;23.53;;;;;;;-144.30;90.43;86732.59;5048484;28;20660;-58
2024/01/15 00:58:43;;;;;;;49.90;22.27;;;;;;;-144.30;91.24;86760.44;5048397;28;20200;-58
2024/01/15 01:01:10;;;;;;;59.53;25.83;;;;;;;-144.30;90.70;86786.28;5050452;28;20551;-57
2024/01/15 01:03:36;;;;;;;58.33;24.40;;;;;;;-144.30;90.90;86820.09;5052085;28;20201;-58
2024/01/15 01:06:04;;;;;;;62.07;26.03;;;;;;;-144.30;90.98;86796.22;5051735;28;20197;-56
2024/01/15 01:08:31;;;;;;;60.07;26.03;;;;;;;-144.30;91.68;86772.34;5051851;28;20264;-59
2024/01/15 01:10:57;;;;;;;59.50;25.60;;;;;;;-144.30;91.76;86784.28;5051751;28;20198;-59
2024/01/15 01:13:24;;;;;;;62.10;25.53;;;;;;;-144.30;91.20;86800.19;5052106;28;20203;-57
2024/01/15 01:15:53;;;;;;;54.13;25.00;;;;;;;-144.30;90.94;86798.22;5051764;28;20195;-57
2024/01/15 01:18:19;;;;;;;55.33;25.40;;;;;;;-144.30;91.02;86822.09;5051752;28;20204;-57
2024/01/15 01:20:46;;;;;;;60.87;25.70;;;;;;;-144.30;91.05;86800.19;5051937;28;20204;-56
2024/01/15 01:23:13;;;;;;;66.70;24.93;;;;;;;-144.30;90.80;86816.13;5051508;28;20203;-56
2024/01/15 01:25:40;;;;;;;56.77;24.57;;;;;;;-144.30;90.12;86804.19;5051760;28;20214;-57
2024/01/15 01:28:07;;;;;;;54.23;24.60;;;;;;;-144.30;89.31;86810.16;5051486;28;20225;-59
2024/01/15 01:30:34;;;;;;;58.17;24.57;;;;;;;-144.30;90.12;86794.25;5051407;28;20298;-60
2024/01/15 01:33:02;;;;;;;57.07;25.27;;;;;;;-144.30;90.60;86774.34;5051722;28;20204;-58
2024/01/15 01:35:29;;;;;;;54.23;25.03;;;;;;;-144.30;91.11;86780.31;5051785;28;20204;-59
2024/01/15 01:37:56;;;;;;;58.13;25.57;;;;;;;-144.30;90.94;86790.25;5051673;28;20699;-59
2024/01/15 01:40:23;;;;;;;57.30;24.33;;;;;;;-144.30;90.96;86774.34;5051612;28;20581;-58
2024/01/15 01:42:50;;;;;;;49.40;23.40;;;;;;;-144.30;90.75;86780.31;5051427;28;20340;-56
2024/01/15 01:45:17;;;;;;;50.23;23.70;;;;;;;-144.30;90.51;86800.19;5051217;28;20199;-57
2024/01/15 01:47:44;;;;;;;48.70;23.63;;;;;;;-144.30;90.65;86824.06;5051326;28;20228;-56
2024/01/15 01:50:13;;;;;;;48.60;22.97;;;;;;;-144.30;90.59;86834.00;5051055;28;20203;-58
2024/01/15 01:52:41;;;;;;;48.57;23.07;;;;;;;-144.30;89.46;86806.16;5051340;28;20701;-58
2024/01/15 01:55:11;;;;;;;46.40;22.43;;;;;;;-144.30;89.40;86800.19;5051173;28;20714;-58
2024/01/15 01:57:38;;;;;;;48.77;22.23;;;;;;;-144.30;89.17;86814.13;5051031;28;20696;-57
2024/01/15 02:00:06;;;;;;;58.73;24.10;;;;;;;-144.30;88.97;86740.53;5050964;28;20198;-58
2024/01/15 02:02:34;;;;;;;57.10;23.27;;;;;;;-144.30;90.85;86820.09;5050905;28;20230;-57
2024/01/15 02:05:01;;;;;;;64.60;22.57;;;;;;;-144.30;90.97;86804.19;5051039;28;20204;-57
2024/01/15 02:07:29;;;;;;;51.10;21.37;;;;;;;-144.30;91.50;86806.16;5051030;28;20224;-57
2024/01/15 02:09:56;;;;;;;55.13;21.57;;;;;;;-144.30;91.24;86800.19;5050934;28;20699;-58
2024/01/15 02:12:23;;;;;;;45.10;20.37;;;;;;;-144.30;91.00;86818.09;5050709;28;20587;-57
2024/01/15 02:14:50;;;;;;;49.40;20.93;;;;;;;-144.30;92.45;86820.09;5051000;28;20197;-57
2024/01/15 02:17:17;;;;;;;44.57;19.97;;;;;;;-144.30;92.54;86822.09;5050898;28;20294;-59
2024/01/15 02:19:44;;;;;;;40.37;20.40;;;;;;;-144.30;92.40;86820.09;5050685;28;20202;-58
2024/01/15 02:22:11;;;;;;;40.03;18.83;;;;;;;-144.30;93.16;86814.13;5065374;28;20317;-58
2024/01/15 02:24:39;;;;;;;44.10;20.03;;;;;;;-144.30;93.20;86818.09;5070274;28;20664;-59
2024/01/15 02:27:06;;;;;;;40.87;19.77;;;;;;;-144.30;93.35;86820.09;5070525;28;20215;-59
2024/01/15 02:29:33;;;;;;;44.37;19.80;;;;;;;-144.30;93.17;86824.06;5070432;28;20199;-58
2024/01/15 02:32:00;;;;;;;41.97;19.87;;;;;;;-144.30;93.68;86812.13;5070474;28;20203;-58
2024/01/15 02:34:27;;;;;;;39.43;19.30;;;;;;;-144.30;93.94;86855.88;5070677;28;20192;-57
2024/01/15 02:36:54;;;;;;;46.33;21.10;;;;;;;-144.30;93.80;86808.16;5070174;28;20207;-57
2024/01/15 02:39:21;;;;;;;45.10;20.57;;;;;;;-144.30;93.10;86788.28;5070127;28;20594;-59
2024/01/15 02:41:49;;;;;;;43.97;20.30;;;;;;;-144.30;93.10;86804.19;5070408;28;20585;-58
2024/01/15 02:44:16;;;;;;;46.37;20.13;;;;;;;-144.30;93.17;86820.09;5070335;28;20200;-58
2024/01/15 02:46:43;;;;;;;48.73;21.40;;;;;;;-144.30;94.30;86841.97;5070027;28;20210;-58
2024/01/15 02:49:10;;;;;;;48.43;20.47;;;;;;;-144.30;94.07;86841.97;5070066;28;20206;-57
2024/01/15 02:51:36;;;;;;;42.17;19.67;;;;;;;-144.30;94.27;86814.13;5069951;28;20287;-57
2024/01/15 02:54:03;;;;;;;44.17;20.47;;;;;;;-144.30;93.82;86828.03;5069869;28;20329;-57
2024/01/15 02:56:30;;;;;;;46.17;20.90;;;;;;;-144.30;94.19;86810.16;5070455;28;20414;-56
2024/01/15 02:58:59;;;;;;;44.23;20.47;;;;;;;-144.30;94.77;86851.91;5069767;28;20192;-59
2024/01/15 03:01:26;;;;;;;48.93;21.23;;;;;;;-144.30;94.21;86768.38;5069706;28;20235;-59
2024/01/15 03:03:52;;;;;;;45.67;20.17;;;;;;;-144.30;93.85;86826.06;5069766;28;20287;-59
2024/01/15 03:06:19;;;;;;;47.07;22.33;;;;;;;-144.30;93.99;86857.88;5069597;28;20318;-59
2024/01/15 03:08:47;;;;;;;48.97;20.37;;;;;;;-144.30;94.81;86816.13;5069526;28;20221;-58
2024/01/15 03:11:14;;;;;;;48.23;21.23;;;;;;;-144.30;94.38;86820.09;5069495;28;20202;-59
2024/01/15 03:13:41;;;;;;;49.20;22.00;;;;;;;-144.30;93.86;86822.09;5069690;28;20202;-57
2024/01/15 03:16:09;;;;;;;46.80;20.57;;;;;;;-144.30;93.93;86830.03;5069628;28;20592;-57
2024/01/15 03:18:36;;;;;;;51.03;22.73;;;;;;;-144.30;94.55;86820.09;5069575;28;20198;-57
2024/01/15 03:21:03;;;;;;;45.27;21.47;;;;;;;-144.30;94.96;86830.03;5069385;28;20196;-56
2024/01/15 03:23:32;;;;;;;53.53;23.07;;;;;;;-144.30;94.79;86859.88;5066363;28;20204;-59
2024/01/15 03:25:59;;;;;;;48.17;21.17;;;;;;;-144.30;94.62;86782.31;5049333;28;20223;-59
2024/01/15 03:28:26;;;;;;;50.27;22.57;;;;;;;-144.30;94.51;86786.28;5049551;28;20234;-59
2024/01/15 03:30:52;;;;;;;50.67;23.13;;;;;;;-144.30;94.75;86841.97;5049348;28;20248;-58
2024/01/15 03:33:21;;;;;;;47.97;22.20;;;;;;;-144.30;94.26;86796.22;5049316;28;20197;-58
2024/01/15 03:35:47;;;;;;;55.80;23.37;;;;;;;-144.30;93.81;86855.88;5049270;28;20204;-56
2024/01/15 03:38:14;;;;;;;53.73;24.57;;;;;;;-144.30;93.27;86812.13;5049349;28;20570;-56
2024/01/15 03:40:41;;;;;;;55.93;23.83;;;;;;;-144.30;93.46;86800.19;5049376;28;20204;-56
2024/01/15 03:43:08;;;;;;;69.17;26.90;;;;;;;-144.30;93.51;86838.00;5049066;28;20291;-58
2024/01/15 03:45:35;;;;;;;64.27;25.23;;;;;;;-144.30;92.55;86839.97;5049269;28;20206;-56
2024/01/15 03:48:02;;;;;;;54.47;24.10;;;;;;;-144.30;91.96;86845.94;5048816;28;20221;-57
2024/01/15 03:50:30;;;;;;;53.27;23.83;;;;;;;-144.30;91.98;86822.09;5049309;28;20584;-57
2024/01/15 03:52:57;;;;;;;58.13;23.00;;;;;;;-144.30;92.36;86832.03;5048930;28;20197;-57
2024/01/15 03:55:24;;;;;;;53.40;22.90;;;;;;;-144.30;92.54;86843.97;5049157;28;20227;-57
2024/01/15 03:57:51;;;;;;;49.73;22.57;;;;;;;-144.30;92.25;86838.00;5049017;28;20197;-57
2024/01/15 04:00:18;;;;;;;48.30;21.43;;;;;;;-144.30;92.71;86820.09;5048896;28;20223;-60
2024/01/15 04:02:45;;;;;;;45.93;21.40;;;;;;;-144.30;92.71;86851.91;5048541;28;20228;-58
2024/01/15 04:05:12;;;;;;;51.80;23.03;;;;;;;-144.30;93.00;86843.97;5048762;28;20201;-59
2024/01/15 04:07:40;;;;;;;54.20;22.07;;;;;;;-144.30;92.88;86808.16;5049194;28;20579;-58
2024/01/15 04:10:07;;;;;;;47.63;21.57;;;;;;;-144.30;93.20;86847.94;5048834;28;20203;-59
2024/01/15 04:12:34;;;;;;;40.73;20.03;;;;;;;-144.30;93.29;86798.22;5049075;28;20585;-56
2024/01/15 04:15:01;;;;;;;45.80;20.83;;;;;;;-144.30;93.58;86818.09;5048758;28;20207;-57
2024/01/15 04:17:28;;;;;;;50.83;21.23;;;;;;;-144.30;93.00;86828.03;5048759;28;20200;-57
2024/01/15 04:19:55;;;;;;;46.77;21.17;;;;;;;-144.30;92.76;86818.09;5048696;28;20200;-58
2024/01/15 04:22:22;;;;;;;45.97;21.83;;;;;;;-144.30;93.09;86818.09;5048887;28;20197;-56
2024/01/15 04:24:50;;;;;;;53.83;21.17;;;;;;;-144.30;92.81;86841.97;5048722;28;20200;-57
2024/01/15 04:27:17;;;;;;;54.33;22.67;;;;;;;-144.30;93.06;86808.16;5048617;28;20597;-57
2024/01/15 04:29:45;;;;;;;54.47;21.77;;;;;;;-144.30;92.08;86851.91;5048703;28;20203;-57
2024/01/15 04:32:12;;;;;;;53.73;22.40;;;;;;;-144.30;91.54;86834.00;5048488;28;20193;-57
2024/01/15 04:34:39;;;;;;;52.37;24.03;;;;;;;-144.30;92.25;86792.25;5049053;28;20219;-59
2024/01/15 04:37:06;;;;;;;58.37;21.60;;;;;;;-144.30;92.92;86834.00;5052796;28;20211;-58
2024/01/15 04:39:33;;;;;;;51.57;22.63;;;;;;;-144.30;93.20;86784.28;5052692;28;20201;-59
2024/01/15 04:42:01;;;;;;;50.20;23.53;;;;;;;-144.30;93.68;86983.19;5052276;28;20200;-58
2024/01/15 04:44:28;;;;;;;58.47;26.00;;;;;;;-144.30;94.35;86839.97;5052477;28;20196;-59
2024/01/15 04:46:55;;;;;;;62.87;24.87;;;;;;;-144.30;94.45;86800.19;5052382;28;20193;-59
2024/01/15 04:49:22;;;;;;;49.83;21.80;;;;;;;-144.30;94.02;86853.91;5052364;28;20228;-60
2024/01/15 04:51:49;;;;;;;54.27;22.63;;;;;;;-144.30;93.94;86839.97;5052403;28;20196;-59
2024/01/15 04:54:17;;;;;;;50.30;23.60;;;;;;;-144.30;94.44;86808.16;5052583;28;20227;-59
2024/01/15 04:56:44;;;;;;;59.97;25.50;;;;;;;-144.30;95.13;86802.19;5052416;28;20196;-58
2024/01/15 04:59:13;;;;;;;58.67;25.83;;;;;;;-144.30;94.60;86830.03;5052319;28;20193;-58
2024/01/15 05:01:40;;;;;;;49.20;25.83;;;;;;;-144.30;94.55;86812.13;5052277;28;20236;-58
2024/01/15 05:04:07;;;;;;;62.33;25.83;;;;;;;-144.30;94.79;86859.88;5052275;28;20220;-57
2024/01/15 05:06:33;;;;;;;65.77;26.07;;;;;;;-144.30;94.82;86853.91;5052206;28;20193;-56
2024/01/15 05:09:00;;;;;;;62.60;26.70;;;;;;;-144.30;95.01;86867.81;5052020;28;20230;-58
2024/01/15 05:11:27;;;;;;;59.47;25.80;;;;;;;-144.30;94.07;86834.00;5052565;28;20676;-58
2024/01/15 05:13:54;;;;;;;57.80;25.93;;;;;;;-144.30;94.12;86832.03;5052197;28;20250;-57
2024/01/15 05:16:22;;;;;;;61.73;26.73;;;;;;;-144.30;94.38;86826.06;5052052;28;20227;-57
2024/01/15 05:18:49;;;;;;;56.63;25.30;;;;;;;-144.30;94.51;86838.00;5052077;28;20579;-57
2024/01/15 05:21:16;;;;;;;59.17;25.97;;;;;;;-144.30;94.88;86836.00;5051668;28;20236;-58
2024/01/15 05:23:43;;;;;;;56.07;25.53;;;;;;;-144.30;95.03;86849.91;5051600;28;20203;-58
2024/01/15 05:26:10;;;;;;;62.10;26.13;;;;;;;-144.30;94.60;86851.91;5051515;28;20197;-59
2024/01/15 05:28:37;;;;;;;65.13;28.40;;;;;;;-144.30;94.21;86822.09;5052016;28;20228;-59
2024/01/15 05:31:04;;;;;;;68.03;29.73;;;;;;;-144.30;94.55;86804.19;5051800;28;20207;-59
2024/01/15 05:33:32;;;;;;;82.17;37.57;;;;;;;-144.30;95.00;86816.13;5059693;28;20283;-59
2024/01/15 05:35:59;;;;;;;82.47;39.37;;;;;;;-144.30;94.96;86772.34;5062099;28;20193;-59
2024/01/15 05:38:26;;;;;;;80.43;33.27;;;;;;;-144.30;94.73;86849.91;5064717;28;20192;-59
2024/01/15 05:40:53;;;;;;;82.70;32.73;;;;;;;-144.30;94.36;86826.06;5057861;28;20283;-58
2024/01/15 05:43:20;;;;;;;67.87;29.80;;;;;;;-144.30;94.74;87028.91;5060248;28;20292;-59
2024/01/15 05:45:47;;;;;;;67.77;30.03;;;;;;;-144.30;94.39;87520.22;5065729;28;20219;-59
2024/01/15 05:48:14;;;;;;;66.10;27.53;;;;;;;-144.30;94.42;86820.09;5060294;28;20216;-60
2024/01/15 05:50:42;;;;;;;68.53;28.63;;;;;;;-144.30;94.12;86814.13;5061708;28;20673;-58
2024/01/15 05:53:09;;;;;;;66.73;26.97;;;;;;;-144.30;94.13;86820.09;5051984;28;20196;-59
2024/01/15 05:55:37;;;;;;;63.63;26.53;;;;;;;-144.30;94.41;86812.13;5051440;28;20204;-59
2024/01/15 05:58:04;;;;;;;61.83;25.20;;;;;;;-144.30;94.30;86836.00;5050937;28;20201;-59
2024/01/15 06:00:32;;;;;;;53.63;25.30;;;;;;;-144.30;94.19;86621.22;5051070;28;20238;-59
2024/01/15 06:03:00;;;;;;;62.43;26.07;;;;;;;-144.30;94.44;86839.97;5051891;28;20228;-57
2024/01/15 06:05:27;;;;;;;50.13;23.77;;;;;;;-144.30;94.61;86794.25;5061465;28;20708;-55
2024/01/15 06:07:55;;;;;;;52.53;24.00;;;;;;;-144.30;94.92;86814.13;5062536;28;20322;-55
2024/01/15 06:10:22;;;;;;;57.97;25.27;;;;;;;-144.30;94.34;86830.03;5059675;28;20201;-60
2024/01/15 06:12:49;;;;;;;57.27;26.07;;;;;;;-144.30;93.88;86843.97;5062829;28;20295;-59
2024/01/15 06:15:16;;;;;;;61.57;26.03;;;;;;;-144.30;93.30;86832.03;5059110;28;20214;-59
2024/01/15 06:17:43;;;;;;;71.88;33.72;;;;;;;-144.30;93.20;86804.19;5065567;28;20443;-58
2024/01/15 06:20:11;;;;;;;62.47;29.20;;;;;;;-144.30;92.69;86804.19;5050428;28;20208;-59
2024/01/15 06:22:40;;;;;;;57.17;28.33;;;;;;;-144.30;91.33;86780.31;5069479;28;20628;-61
2024/01/15 06:25:09;;;;;;;64.50;28.10;;;;;;;-144.30;91.23;86802.19;5070360;28;20200;-59
2024/01/15 06:27:36;;;;;;;65.13;28.70;;;;;;;-144.30;91.11;86800.19;5070458;28;20253;-59
2024/01/15 06:30:03;;;;;;;59.47;28.00;;;;;;;-144.30;91.43;86836.00;5070074;28;20220;-58
2024/01/15 06:32:30;;;;;;;66.20;29.03;;;;;;;-144.30;91.27;86847.94;5069220;28;20234;-58
2024/01/15 06:34:57;;;;;;;70.33;30.50;;;;;;;-144.30;90.93;86849.91;5055949;28;20197;-59
2024/01/15 06:37:24;;;;;;;70.67;31.50;;;;;;;-144.30;91.17;86798.22;5051070;28;20197;-57
2024/01/15 06:39:51;;;;;;;68.07;30.27;;;;;;;-144.30;90.87;86830.03;5048344;28;20200;-57
2024/01/15 06:42:21;;;;;;;71.10;30.83;;;;;;;-144.30;90.07;86839.97;5049256;28;20228;-59
2024/01/15 06:44:48;;;;;;;66.83;30.43;;;;;;;-144.30;89.92;86849.91;5049180;28;20201;-57
2024/01/15 06:47:17;;;;;;;63.47;27.33;;;;;;;-144.30;89.75;86838.00;5049160;28;20201;-56
2024/01/15 06:49:44;;;;;;;48.43;25.27;;;;;;;-144.30;88.92;86841.97;5049411;28;20240;-57
2024/01/15 06:52:11;;;;;;;50.50;23.47;;;;;;;-144.30;88.06;86766.41;5049086;28;20292;-57
2024/01/15 06:54:38;;;;;;;45.40;21.90;;;;;;;-144.30;87.84;86784.28;5049559;28;20205;-59
2024/01/15 06:57:06;;;;;;;44.40;21.47;;;;;;;-144.30;87.24;86834.00;5049957;28;20198;-58
2024/01/15 06:59:35;;;;;;;47.60;21.20;;;;;;;-144.30;86.58;86832.03;5049586;28;20192;-59
2024/01/15 07:02:02;;;;;;;48.17;21.30;;;;;;;-144.30;86.11;86816.13;5049615;28;20722;-58
2024/01/15 07:04:29;;;;;;;46.57;20.67;;;;;;;-144.30;85.72;86826.06;5050072;28;20254;-58
2024/01/15 07:06:56;;;;;;;44.00;20.90;;;;;;;-144.30;85.93;86810.16;5049901;28;20231;-59
2024/01/15 07:09:23;;;;;;;48.53;21.87;;;;;;;-144.30;85.06;86810.16;5049622;28;20626;-59
2024/01/15 07:11:50;;;;;;;57.37;23.10;;;;;;;-144.30;84.32;86800.19;5050360;28;20556;-57
2024/01/15 07:14:17;;;;;;;52.40;23.33;;;;;;;-144.30;84.49;86810.16;5049759;28;20312;-57
2024/01/15 07:16:45;;;;;;;62.40;25.00;;;;;;;-144.30;84.24;86816.13;5049477;28;20249;-58
2024/01/15 07:19:12;;;;;;;54.83;24.70;;;;;;;-144.30;83.97;86780.31;5049535;28;20223;-58
2024/01/15 07:21:42;;;;;;;58.43;24.80;;;;;;;-144.30;83.63;86792.25;5049770;28;20205;-58
2024/01/15 07:24:09;;;;;;;57.63;25.53;;;;;;;-144.30;83.46;86804.19;5049633;28;20278;-59
2024/01/15 07:26:36;;;;;;;57.90;26.43;;;;;;;-144.30;81.94;86808.16;5049511;28;20200;-57
2024/01/15 07:29:03;;;;;;;65.57;27.27;;;;;;;-144.30;81.63;86824.06;5049136;28;20235;-57
2024/01/15 07:31:30;;;;;;;58.10;29.10;;;;;;;-144.30;81.50;86776.34;5049683;28;20203;-57
2024/01/15 07:33:58;;;;;;;58.00;27.40;;;;;;;-144.30;82.93;86772.34;5049384;28;20296;-56
2024/01/15 07:36:25;;;;;;;55.17;26.23;;;;;;;-144.30;82.59;86788.28;5050096;28;20585;-57
2024/01/15 07:38:52;;;;;;;62.70;28.97;;;;;;;-144.30;82.07;86822.09;5049891;28;20457;-57
2024/01/15 07:41:19;;;;;;;53.93;24.43;;;;;;;-144.30;81.67;86800.19;5053872;28;20195;-56
2024/01/15 07:43:45;;;;;;;49.13;23.17;;;;;;;-144.30;81.43;86780.31;5069723;28;20234;-57
2024/01/15 07:46:12;;;;;;;51.00;23.37;;;;;;;-144.30;81.37;86706.72;5069138;28;20210;-57
2024/01/15 07:48:39;;;;;;;59.07;24.53;;;;;;;-144.30;80.36;86768.38;5068680;28;20223;-57
2024/01/15 07:51:08;;;;;;;63.57;27.03;;;;;;;-144.30;79.07;86780.31;5060651;28;20483;-58
2024/01/15 07:53:34;;;;;;;63.83;27.03;;;;;;;-144.30;78.61;86760.44;5048698;28;20197;-58
2024/01/15 07:56:01;;;;;;;49.57;24.13;;;;;;;-144.30;79.08;86772.34;5048374;28;20295;-58
2024/01/15 07:58:28;;;;;;;60.85;30.75;;;;;;;-144.30;78.92;86778.31;5051017;28;20452;-58
2024/01/15 08:00:55;;;;;;;57.00;27.07;;;;;;;-144.30;79.63;86800.19;5068861;28;20227;-58
2024/01/15 08:03:22;;;;;;;61.37;29.67;;;;;;;-144.30;78.30;86800.19;5069744;28;20569;-58
2024/01/15 08:05:52;;;;;;;74.20;30.40;;;;;;;-144.30;77.60;86772.34;5069938;28;20192;-58
2024/01/15 08:08:21;;;;;;;68.83;30.23;;;;;;;-144.30;77.84;86780.31;5069478;28;20204;-57
2024/01/15 08:10:48;;;;;;;63.53;30.10;;;;;;;-144.30;77.87;86740.53;5072524;28;20247;-59
2024/01/15 08:13:15;;;;;;;65.73;31.20;;;;;;;-144.30;78.14;86762.41;5076504;28;20225;-59
2024/01/15 08:15:42;;;;;;;69.47;30.97;;;;;;;-144.30;77.24;86764.41;5076260;28;20202;-59
2024/01/15 08:18:09;;;;;;;61.87;26.90;;;;;;;-144.30;75.84;86718.66;5076165;28;20202;-60
2024/01/15 08:20:36;;;;;;;69.87;26.53;;;;;;;-144.30;75.34;86712.69;5076227;28;20192;-59
2024/01/15 08:23:02;;;;;;;50.60;24.27;;;;;;;-144.30;74.04;86712.69;5076035;28;20225;-59
2024/01/15 08:25:31;;;;;;;49.67;23.93;;;;;;;-144.30;73.00;86724.63;5075960;28;20658;-59
2024/01/15 08:27:58;;;;;;;54.33;25.03;;;;;;;-144.30;73.26;86732.59;5076044;28;20211;-58
2024/01/15 08:30:27;;;;;;;52.27;26.53;;;;;;;-144.30;73.05;86778.31;5076247;28;20258;-59
2024/01/15 08:32:54;;;;;;;57.20;27.53;;;;;;;-144.30;72.08;86720.66;5076148;28;20205;-59
2024/01/15 08:35:22;;;;;;;65.73;28.33;;;;;;;-144.30;72.44;86760.44;5076207;28;20289;-60
2024/01/15 08:37:50;;;;;;;74.60;31.63;;;;;;;-144.30;72.44;86732.59;5075889;28;20282;-59
2024/01/15 08:40:17;;;;;;;61.90;30.30;;;;;;;-144.30;72.09;86708.72;5076044;28;20219;-58
2024/01/15 08:42:45;;;;;;;68.33;32.73;;;;;;;-144.30;71.42;86728.59;5076027;28;20238;-59
2024/01/15 08:45:12;;;;;;;74.53;30.90;;;;;;;-144.30;71.13;86708.72;5075875;28;20586;-57
2024/01/15 08:47:39;;;;;;;58.07;27.70;;;;;;;-144.30;71.59;86724.63;5075907;28;20553;-59
2024/01/15 08:50:10;;;;;;;53.97;25.40;;;;;;;-144.30;71.45;86716.69;5075817;28;20218;-57
2024/01/15 08:52:37;;;;;;;56.80;24.13;;;;;;;-144.30;71.59;86704.75;5075927;28;20204;-56
2024/01/15 08:55:07;;;;;;;52.33;26.07;;;;;;;-144.30;71.28;86722.66;5075973;28;20656;-56
2024/01/15 08:57:33;;;;;;;51.93;23.20;;;;;;;-144.30;71.11;86684.84;5075650;28;20228;-57
2024/01/15 09:00:02;;;;;;;49.87;23.37;;;;;;;-144.30;71.04;86694.81;5075692;28;20197;-57
2024/01/15 09:02:30;;;;;;;48.20;24.27;;;;;;;-144.30;71.38;86680.88;5075666;28;20238;-57
2024/01/15 09:04:57;;;;;;;60.27;25.50;;;;;;;-144.30;70.57;86565.53;5075736;28;20203;-57
2024/01/15 09:07:25;;;;;;;57.40;24.33;;;;;;;-144.30;69.88;86649.06;5075857;28;20198;-56
2024/01/15 09:09:54;;;;;;;51.47;26.13;;;;;;;-144.30;69.48;86748.50;5075703;28;20226;-57
2024/01/15 09:12:22;;;;;;;57.50;27.40;;;;;;;-144.30;69.32;86708.72;5075921;28;20566;-57
2024/01/15 09:14:50;;;;;;;59.10;26.60;;;;;;;-144.30;69.22;86629.19;5063860;28;20208;-57
2024/01/15 09:17:18;;;;;;;56.77;26.80;;;;;;;-144.30;69.14;86674.91;5075663;28;20192;-57
2024/01/15 09:19:45;;;;;;;53.73;25.63;;;;;;;-144.30;69.41;86680.88;5075530;28;20199;-57
2024/01/15 09:22:14;;;;;;;50.97;24.67;;;;;;;-144.30;69.37;86722.66;5072151;28;20203;-57
2024/01/15 09:24:41;;;;;;;46.97;25.20;;;;;;;-144.30;69.88;86686.84;5072390;28;20206;-57
2024/01/15 09:27:08;;;;;;;51.60;23.97;;;;;;;-144.30;69.56;86712.69;5072256;28;20294;-56
2024/01/15 09:29:36;;;;;;;53.43;25.20;;;;;;;-144.30;70.06;86696.78;5072451;28;20727;-58
2024/01/15 09:32:04;;;;;;;46.30;23.40;;;;;;;-144.30;70.15;86631.16;5072138;28;20744;-59
2024/01/15 09:34:32;;;;;;;52.53;22.93;;;;;;;-144.30;70.53;86692.81;5072197;28;20209;-57
2024/01/15 09:36:59;;;;;;;47.83;22.70;;;;;;;-144.30;70.49;86702.75;5072097;28;20202;-58
2024/01/15 09:39:26;;;;;;;51.03;23.20;;;;;;;-144.30;69.90;86686.84;5072299;28;20194;-56
2024/01/15 09:41:54;;;;;;;53.37;23.97;;;;;;;-144.30;69.11;86662.97;5072185;28;20559;-57
2024/01/15 09:44:21;;;;;;;46.53;22.83;;;;;;;-144.30;68.98;86672.94;5071805;28;20285;-57
2024/01/15 09:46:50;;;;;;;46.53;22.83;;;;;;;-144.30;68.71;86682.88;5072267;28;20200;-56
2024/01/15 09:49:17;;;;;;;43.20;23.00;;;;;;;-144.30;67.87;86662.97;5071791;28;20355;-57
2024/01/15 09:51:45;;;;;;;50.20;23.27;;;;;;;-144.30;68.06;86664.97;5071957;28;20211;-57
2024/01/15 09:54:16;;;;;;;47.83;22.50;;;;;;;-144.30;67.91;86666.97;5071869;28;20576;-57
2024/01/15 09:56:46;;;;;;;82.53;27.33;;;;;;;-144.30;68.26;86662.97;5071960;28;20205;-57
2024/01/15 09:59:15;;;;;;;62.23;23.97;;;;;;;-144.30;68.77;86688.84;5071828;28;20256;-57
2024/01/15 10:01:43;;;;;;;59.63;25.53;;;;;;;-144.30;69.10;86587.41;5065142;28;20231;-58
2024/01/15 10:04:11;;;;;;;54.00;26.27;;;;;;;-144.30;69.05;86668.94;5064610;28;20209;-57
2024/01/15 10:06:39;;;;;;;47.43;24.97;;;;;;;-144.30;69.13;86627.19;5063806;28;20196;-57
2024/01/15 10:09:07;;;;;;;55.47;26.20;;;;;;;-144.30;69.20;86659.00;5060440;28;20200;-57
2024/01/15 10:11:34;;;;;;;57.43;27.60;;;;;;;-144.30;69.21;86661.00;5065952;28;20204;-57
2024/01/15 10:14:02;;;;;;;59.83;27.17;;;;;;;-144.30;69.54;86643.09;5063282;28;20516;-57
2024/01/15 10:16:29;;;;;;;47.70;26.23;;;;;;;-144.30;69.71;86641.09;5059138;28;20200;-57
2024/01/15 10:18:56;;;;;;;52.23;26.47;;;;;;;-144.30;69.80;86649.06;5069504;28;20195;-57
2024/01/15 10:21:23;;;;;;;49.67;26.13;;;;;;;-144.30;70.36;86704.75;5071185;28;20221;-57
2024/01/15 10:23:50;;;;;;;60.73;25.83;;;;;;;-144.30;70.40;86629.19;5071191;28;20204;-57
2024/01/15 10:26:18;;;;;;;49.13;26.00;;;;;;;-144.30;70.57;86637.13;5071067;28;20196;-56
2024/01/15 10:28:45;;;;;;;59.43;25.20;;;;;;;-144.30;69.80;86645.09;5071221;28;20202;-56
2024/01/15 10:31:13;;;;;;;49.60;25.10;;;;;;;-144.30;69.40;86613.28;5071266;28;20220;-58
2024/01/15 10:33:40;;;;;;;49.20;25.50;;;;;;;-144.30;69.42;86645.09;5070013;28;20210;-57
2024/01/15 10:36:11;;;;;;;49.77;25.77;;;;;;;-144.30;69.34;86615.25;5070943;28;20196;-57
2024/01/15 10:38:38;;;;;;;53.77;26.87;;;;;;;-144.30;69.13;86653.03;5071041;28;20192;-57
2024/01/15 10:41:05;;;;;;;54.70;27.43;;;;;;;-144.30;68.28;86643.09;5070801;28;20283;-57
2024/01/15 10:43:33;;;;;;;54.70;27.40;;;;;;;-144.30;68.32;86659.00;5071209;28;20199;-58
2024/01/15 10:46:01;;;;;;;59.43;30.43;;;;;;;-144.30;68.40;86621.22;5070806;28;20196;-57
2024/01/15 10:48:30;;;;;;;51.63;26.07;;;;;;;-144.30;67.06;86672.94;5070981;28;20196;-57
2024/01/15 10:50:58;;;;;;;43.47;23.83;;;;;;;-144.30;66.93;86617.25;5070702;28;20259;-57
2024/01/15 10:53:26;;;;;;;46.90;25.17;;;;;;;-144.30;66.83;86609.28;5070638;28;20192;-57
2024/01/15 10:55:53;;;;;;;60.37;26.83;;;;;;;-144.30;66.97;86597.34;5071055;28;20589;-57
2024/01/15 10:58:22;;;;;;;60.17;27.73;;;;;;;-144.30;66.92;86597.34;5070693;28;20683;-58
2024/01/15 11:00:50;;;;;;;59.47;29.43;;;;;;;-144.30;67.50;86625.19;5070463;28;20576;-58
2024/01/15 11:03:19;;;;;;;55.03;27.80;;;;;;;-144.30;67.14;86529.75;5070066;28;20275;-58